CheckWX is a tool to help pilots better visualize weather data.  It is not intended as a substitute for an official pre-flight weather briefing.

04:54:36 UTC

EGPE TAF
Inverness Airport
Inverness, United Kingdom
TAF EGPE 170156Z 1703/1712 VRB05KT 9999 FEW045 TEMPO 1703/1705 6000 RA PROB30 TEMPO 1703/1704 3000 +RA BKN012 BECMG 1705/1708 20010KT PROB40 TEMPO 1709/1712 6000 SHRA

Jun-17@
03:00 UTC

Jun-17 @ 03:00 UTC

Jun-17@
05:00 UTC

Jun-17 @ 05:00 UTC

TAF EGPE 170156Z 1703/1712 VRB05KT 9999 FEW045
Wind
  • Variable at 5 KTS
Cloud Levels
  • Few at 4,500' AGL

Jun-17@
03:00 UTC

Jun-17 @ 03:00 UTC

Jun-17@
04:00 UTC

Jun-17 @ 04:00 UTC

PROB30 TEMPO 1703/1704 3000 +RA BKN012

Expired

Conditions
Heavy Rain
Cloud Levels
  • Broken at 1,200' AGL

Jun-17@
03:00 UTC

Jun-17 @ 03:00 UTC

Jun-17@
05:00 UTC

Jun-17 @ 05:00 UTC

TEMPO 1703/1705 6000 RA

Temporary

Temporary Changes expected for less than half the time period

Conditions
Rain

Jun-17@
05:00 UTC

Jun-17 @ 05:00 UTC

Jun-17@
12:00 UTC

Jun-17 @ 12:00 UTC

BECMG 1705/1708 20010KT

Becoming

Becoming Conditions expected by Mon, Jun 17, 2019 @ 08:00 UTC

Wind
  • 200° at 10 KTS
Cloud Levels
  • Few at 4,500' AGL

Jun-17@
09:00 UTC

Jun-17 @ 09:00 UTC

Jun-17@
12:00 UTC

Jun-17 @ 12:00 UTC

PROB40 TEMPO 1709/1712 6000 SHRA

Temporary - 40% Likelihood

Temporary - 40% Likelihood during this time.

Conditions
Rain